createdAt,value
2022-08-11T07:58:25.013Z,102396.69
2022-08-11T08:01:21.634Z,102398.22
2022-08-11T08:04:09.284Z,102386.41
2022-08-11T08:06:57.024Z,102390.38
2022-08-11T08:09:44.464Z,102396.94
2022-08-11T08:12:33.666Z,102388.72
2022-08-11T08:15:28.383Z,102386.66
2022-08-11T08:18:09.476Z,102388.47
2022-08-11T08:20:50.097Z,102385.41
2022-08-11T08:23:33.207Z,102391.09
2022-08-11T08:26:04.695Z,102383.72
2022-08-11T08:28:34.531Z,102387.88
2022-08-11T08:31:03.848Z,102391.09
2022-08-11T08:33:33.044Z,102387.28
2022-08-11T08:36:14.800Z,102386.78
2022-08-11T08:38:47.082Z,102383.53
2022-08-11T08:41:22.558Z,102375.34
2022-08-11T08:43:57.716Z,102376.31
2022-08-11T08:46:36.524Z,102380.41
2022-08-11T08:49:05.692Z,102372.16
2022-08-11T08:51:54.916Z,102371.19
2022-08-11T08:54:37.114Z,102379.31
2022-08-11T08:57:07.953Z,102371.56
2022-08-11T08:59:49.029Z,102366.94
2022-08-11T09:02:33.917Z,102367.75
2022-08-11T09:05:04.717Z,102360.97
2022-08-11T09:07:39.877Z,102359.41
2022-08-11T09:10:10.810Z,102358.59
2022-08-11T09:12:42.716Z,102358.59
2022-08-11T09:15:12.850Z,102355.41
2022-08-11T09:17:45.864Z,102350.22
2022-08-11T09:20:19.616Z,102360.19
2022-08-11T09:26:18.887Z,102350.56
2022-08-11T09:28:49.715Z,102357.75
2022-08-11T09:31:17.892Z,102352.97
2022-08-11T09:33:55.376Z,102341.78
2022-08-11T09:36:42.410Z,102337.38
2022-08-11T09:39:32.146Z,102337.00
2022-08-11T09:42:04.343Z,102345.41
2022-08-11T09:44:50.014Z,102345.00
2022-08-11T09:47:24.574Z,102332.16
2022-08-11T09:50:00.619Z,102328.97
2022-08-11T09:52:32.970Z,102320.56
2022-08-11T09:55:02.787Z,102320.91
2022-08-11T09:57:48.808Z,102319.19
2022-08-11T10:00:17.492Z,102312.13
2022-08-11T10:02:49.546Z,102308.97
2022-08-11T10:05:39.783Z,102315.91
2022-08-11T10:08:12.889Z,102312.50
2022-08-11T10:10:41.917Z,102296.13
2022-08-11T10:14:29.361Z,102296.53
2022-08-11T10:16:15.647Z,102293.69
2022-08-11T10:18:51.577Z,102298.50
2022-08-11T10:21:29.342Z,102294.63
2022-08-11T10:27:06.193Z,102289.34
2022-08-11T10:29:58.207Z,102279.56
2022-08-11T10:32:58.571Z,102282.50
2022-08-11T10:35:29.544Z,102275.34
2022-08-11T10:38:08.689Z,102279.41
2022-08-11T10:40:41.020Z,102275.00
2022-08-11T10:43:14.218Z,102275.06
2022-08-11T10:46:05.340Z,102273.19
2022-08-11T10:48:38.910Z,102272.50
2022-08-11T10:51:14.214Z,102261.75
2022-08-11T10:54:05.656Z,102271.38
2022-08-11T10:56:55.952Z,102259.53
2022-08-11T10:59:26.780Z,102250.91
2022-08-11T11:01:55.458Z,102260.81
2022-08-11T11:04:34.085Z,102253.47
2022-08-11T11:07:14.997Z,102258.72
2022-08-11T11:09:51.163Z,102254.00
2022-08-11T11:12:44.141Z,102255.00
2022-08-11T11:15:33.268Z,102249.59
2022-08-11T11:18:09.352Z,102247.06
2022-08-11T11:20:47.108Z,102245.66
2022-08-11T11:23:23.767Z,102230.72
2022-08-11T11:26:35.789Z,102231.31
2022-08-11T11:29:29.662Z,102231.13
2022-08-11T11:32:20.061Z,102227.94
2022-08-11T11:35:18.171Z,102228.91
2022-08-11T11:38:03.565Z,102226.34
2022-08-11T11:40:33.182Z,102230.06
2022-08-11T11:43:05.203Z,102232.50
2022-08-11T11:45:34.982Z,102230.69
2022-08-11T11:48:03.613Z,102227.16
2022-08-11T11:50:35.760Z,102231.06
2022-08-11T11:53:08.239Z,102232.69
2022-08-11T11:55:36.634Z,102224.03
2022-08-11T11:58:25.509Z,102226.72
2022-08-11T12:01:12.586Z,102219.53
2022-08-11T12:03:45.186Z,102222.41
2022-08-11T12:06:14.346Z,102215.91
2022-08-11T12:08:43.932Z,102212.19
2022-08-11T12:11:32.166Z,102218.44
2022-08-11T12:14:10.208Z,102221.03
2022-08-11T12:16:41.754Z,102211.44
2022-08-11T12:19:12.901Z,102201.91
2022-08-11T12:22:00.943Z,102207.31
2022-08-11T12:24:49.376Z,102204.97
2022-08-11T12:27:20.606Z,102195.63
2022-08-11T12:29:59.610Z,102203.13
2022-08-11T12:32:30.919Z,102198.94
2022-08-11T12:34:58.883Z,102185.34
2022-08-11T12:37:32.677Z,102195.03
2022-08-11T12:40:43.474Z,102185.13
2022-08-11T12:43:40.689Z,102189.59
2022-08-11T12:46:14.585Z,102183.63
2022-08-11T12:49:06.131Z,102173.94
2022-08-11T12:52:01.542Z,102166.00
2022-08-11T12:54:57.441Z,102176.31
2022-08-11T12:57:50.332Z,102166.94
2022-08-11T13:00:40.461Z,102168.41
2022-08-11T13:03:31.153Z,102163.41
2022-08-11T13:06:04.204Z,102159.84
2022-08-11T13:08:37.735Z,102165.94
2022-08-11T13:11:25.147Z,102161.22
2022-08-11T13:14:15.316Z,102144.50
2022-08-11T13:17:04.200Z,102156.75
2022-08-11T13:19:34.991Z,102148.66
2022-08-11T13:22:05.403Z,102142.53
2022-08-11T13:24:36.539Z,102139.31
2022-08-11T13:27:04.887Z,102139.31
2022-08-11T13:29:32.742Z,102137.88
2022-08-11T13:32:00.952Z,102137.25
2022-08-11T13:34:34.352Z,102130.19
2022-08-11T13:37:05.422Z,102132.16
2022-08-11T13:39:35.792Z,102136.38
2022-08-11T13:42:05.463Z,102138.94
2022-08-11T13:44:38.491Z,102133.94
2022-08-11T13:47:15.814Z,102131.03
2022-08-11T13:49:51.264Z,102132.66
2022-08-11T13:52:20.840Z,102133.28
2022-08-11T13:54:53.545Z,102125.50
2022-08-11T13:58:09.072Z,102128.44
2022-08-11T14:00:12.985Z,102118.88
2022-08-11T14:02:54.167Z,102114.06
2022-08-11T14:05:29.093Z,102112.56
2022-08-11T14:08:03.129Z,102105.78
2022-08-11T14:10:35.063Z,102112.28
2022-08-11T14:13:27.425Z,102106.91
2022-08-11T14:16:04.756Z,102105.16
2022-08-11T14:18:39.765Z,102099.00
2022-08-11T14:21:33.785Z,102096.25
2022-08-11T14:24:08.434Z,102094.00
2022-08-11T14:26:38.990Z,102094.63
2022-08-11T14:29:11.100Z,102095.09
2022-08-11T14:31:45.444Z,102090.84
2022-08-11T14:34:14.853Z,102086.00
2022-08-11T14:36:45.854Z,102090.19
2022-08-11T14:39:18.568Z,102079.34
2022-08-11T14:42:13.094Z,102082.91
2022-08-11T14:45:06.078Z,102075.69
2022-08-11T14:47:38.152Z,102088.50
2022-08-11T14:50:13.964Z,102086.50
2022-08-11T14:52:50.882Z,102076.31
2022-08-11T14:55:41.301Z,102079.84
2022-08-11T14:58:11.794Z,102074.00
2022-08-11T15:00:42.429Z,102076.59
2022-08-11T15:03:14.073Z,102079.16
2022-08-11T15:05:56.736Z,102071.06
2022-08-11T15:08:49.704Z,102066.84
2022-08-11T15:11:42.718Z,102074.41
2022-08-11T15:14:12.783Z,102068.25
2022-08-11T15:17:04.514Z,102068.41
2022-08-11T15:19:40.507Z,102068.41
2022-08-11T15:22:29.047Z,102059.69
2022-08-11T15:24:59.658Z,102061.91
2022-08-11T15:27:51.976Z,102052.38
2022-08-11T15:30:39.854Z,102050.09
2022-08-11T15:33:29.884Z,102044.25
2022-08-11T15:36:19.254Z,102042.47
2022-08-11T15:38:55.770Z,102037.91
2022-08-11T15:41:58.598Z,102033.53
2022-08-11T15:45:07.797Z,102034.66
2022-08-11T15:47:42.690Z,102034.66
2022-08-11T15:50:16.397Z,102030.78
2022-08-11T15:52:56.446Z,102027.72
2022-08-11T15:55:25.929Z,102028.53
2022-08-11T15:58:17.004Z,102027.88
2022-08-11T16:01:09.493Z,102018.97
2022-08-11T16:04:09.128Z,102027.19
2022-08-11T16:06:49.284Z,102018.66
2022-08-11T16:09:23.939Z,102015.59
2022-08-11T16:11:54.541Z,102018.81
2022-08-11T16:14:45.118Z,102018.97
2022-08-11T16:17:17.519Z,102018.13
2022-08-11T16:19:50.117Z,102012.28
2022-08-11T16:22:58.961Z,102017.75
2022-08-11T16:27:03.979Z,102001.78
2022-08-11T16:28:24.635Z,102001.28
2022-08-11T16:30:55.496Z,102011.63
2022-08-11T16:33:50.708Z,102001.63
2022-08-11T16:36:35.475Z,102002.44
2022-08-11T16:39:06.551Z,101997.72
2022-08-11T16:41:56.303Z,101995.97
2022-08-11T16:44:45.446Z,101991.13
2022-08-11T16:47:16.664Z,101991.25
2022-08-11T16:49:52.145Z,101991.03
2022-08-11T16:52:22.710Z,101990.72
2022-08-11T16:54:52.764Z,101989.13
2022-08-11T16:57:43.310Z,101984.06
2022-08-11T17:00:15.388Z,101982.47
2022-08-11T17:03:05.423Z,101983.09
2022-08-11T17:05:55.546Z,101975.97
2022-08-11T17:08:57.132Z,101981.47
2022-08-11T17:11:47.906Z,101979.41
2022-08-11T17:14:35.857Z,101984.09
2022-08-11T17:17:08.204Z,101980.44
2022-08-11T17:20:41.041Z,101978.81
2022-08-11T17:22:50.961Z,101975.09
2022-08-11T17:25:20.321Z,101982.22
2022-08-11T17:27:48.940Z,101975.09
2022-08-11T17:30:16.737Z,101978.50
2022-08-11T17:33:08.412Z,101972.69
2022-08-11T17:35:41.030Z,101971.81
2022-08-11T17:38:14.292Z,101967.28
2022-08-11T17:41:05.400Z,101966.44
2022-08-11T17:43:52.733Z,101964.91
2022-08-11T17:46:39.814Z,101969.34
2022-08-11T17:49:11.275Z,101965.16
2022-08-11T17:52:01.574Z,101965.88
2022-08-11T17:54:52.794Z,101968.34
2022-08-11T17:57:47.487Z,101968.38
2022-08-11T18:00:16.910Z,101966.81
2022-08-11T18:03:06.783Z,101978.00
2022-08-11T18:05:37.848Z,101975.81
2022-08-11T18:08:28.364Z,101975.19
2022-08-11T18:12:05.790Z,101982.09
2022-08-11T18:14:28.962Z,101978.69
2022-08-11T18:17:15.423Z,101987.16
2022-08-11T18:20:01.639Z,101979.56
2022-08-11T18:22:54.705Z,101985.34
2022-08-11T18:25:45.859Z,101968.88
2022-08-11T18:28:38.708Z,101986.88
2022-08-11T18:31:27.556Z,101982.97
2022-08-11T18:34:16.562Z,101987.00
2022-08-11T18:37:19.494Z,101989.34
2022-08-11T18:40:16.706Z,101993.13
2022-08-11T18:43:06.851Z,101995.72
2022-08-11T18:46:06.169Z,101994.72
2022-08-11T18:48:57.499Z,101999.53
2022-08-11T18:51:46.933Z,101997.72
2022-08-11T18:54:37.191Z,102004.97
2022-08-11T18:57:27.441Z,102005.09
2022-08-11T19:00:18.399Z,102005.44
2022-08-11T19:03:07.038Z,102007.41
2022-08-11T19:06:31.868Z,102009.16
2022-08-11T19:09:15.588Z,102002.75
2022-08-11T19:12:04.140Z,102003.88
2022-08-11T19:14:53.440Z,102004.53
2022-08-11T19:17:45.994Z,102010.59
2022-08-11T19:20:38.330Z,102007.97
2022-08-11T19:23:28.839Z,102008.63
2022-08-11T19:26:17.150Z,102006.47
2022-08-11T19:29:08.035Z,102011.44
2022-08-11T19:31:56.482Z,102007.13
2022-08-11T19:34:44.956Z,102015.59
2022-08-11T19:37:32.874Z,102017.06
2022-08-11T19:40:25.341Z,102027.47
2022-08-11T19:43:23.686Z,102029.41
2022-08-11T19:46:16.922Z,102026.47
2022-08-11T19:49:06.338Z,102025.91
2022-08-11T19:51:54.839Z,102034.94
2022-08-11T19:54:47.710Z,102032.53
2022-08-11T19:57:39.972Z,102033.38
2022-08-11T20:00:32.144Z,102034.22
2022-08-11T20:03:19.931Z,102035.88
2022-08-11T20:06:07.278Z,102036.97
2022-08-11T20:08:58.656Z,102043.03
2022-08-11T20:11:51.599Z,102041.94
2022-08-11T20:14:39.943Z,102043.56
2022-08-11T20:17:28.958Z,102046.03
2022-08-11T20:20:22.951Z,102053.94
2022-08-11T20:23:13.040Z,102063.47
2022-08-11T20:26:14.146Z,102052.34
2022-08-11T20:29:10.661Z,102053.97
2022-08-11T20:31:57.981Z,102047.22
2022-08-11T20:34:44.439Z,102056.72
2022-08-11T20:37:32.342Z,102055.09
2022-08-11T20:40:23.954Z,102056.47
2022-08-11T20:44:04.991Z,102050.25
2022-08-11T20:46:21.395Z,102059.47
2022-08-11T20:49:10.970Z,102058.38
2022-08-11T20:52:01.141Z,102061.09
2022-08-11T20:54:55.313Z,102063.81
2022-08-11T20:57:58.837Z,102066.53
2022-08-11T21:00:50.966Z,102071.94
2022-08-11T21:03:44.584Z,102069.78
2022-08-11T21:06:39.779Z,102067.59
2022-08-11T21:09:58.298Z,102070.88
2022-08-11T21:12:38.625Z,102070.81
2022-08-11T21:15:38.698Z,102076.53
2022-08-11T21:18:36.885Z,102076.50
2022-08-11T21:21:30.085Z,102075.13
2022-08-11T21:24:34.312Z,102083.75
2022-08-11T21:27:25.430Z,102080.25
2022-08-11T21:30:14.394Z,102082.66
2022-08-11T21:33:02.242Z,102079.91
2022-08-11T21:35:49.239Z,102081.53
2022-08-11T21:38:37.063Z,102077.16
2022-08-11T21:41:25.442Z,102073.31
2022-08-11T21:44:14.261Z,102082.53
2022-08-11T21:47:00.704Z,102081.97
2022-08-11T21:49:49.643Z,102079.22
2022-08-11T21:52:36.066Z,102084.88
2022-08-11T21:55:25.334Z,102085.09
2022-08-11T21:58:14.212Z,102079.41
2022-08-11T22:01:01.814Z,102086.69
2022-08-11T22:03:49.965Z,102074.75
2022-08-11T22:06:37.104Z,102083.38
2022-08-11T22:09:23.444Z,102084.97
2022-08-11T22:12:30.648Z,102088.97
2022-08-11T22:15:18.022Z,102082.97
2022-08-11T22:18:04.038Z,102091.06
2022-08-11T22:20:52.991Z,102089.13
2022-08-11T22:23:41.096Z,102079.34
2022-08-11T22:26:29.573Z,102085.25
2022-08-11T22:29:16.725Z,102082.50
2022-08-11T22:32:03.797Z,102078.44
2022-08-11T22:34:53.239Z,102081.91
2022-08-11T22:37:41.915Z,102082.41
2022-08-11T22:40:30.175Z,102082.97
2022-08-11T22:43:16.527Z,102085.63
2022-08-11T22:46:03.686Z,102086.13
2022-08-11T22:48:52.012Z,102080.63
2022-08-11T22:51:39.949Z,102079.25
2022-08-11T22:54:27.746Z,102087.09
2022-08-11T22:57:14.885Z,102088.66
2022-08-11T23:00:01.703Z,102092.94
2022-08-11T23:02:49.120Z,102090.19
2022-08-11T23:05:36.609Z,102087.44
2022-08-11T23:08:23.355Z,102090.63
2022-08-11T23:11:10.209Z,102086.00
2022-08-11T23:13:57.007Z,102089.47
2022-08-11T23:16:43.726Z,102088.34
2022-08-11T23:20:09.776Z,102082.88
2022-08-11T23:22:49.451Z,102089.03
2022-08-11T23:25:36.973Z,102087.09
2022-08-11T23:28:26.362Z,102083.00
2022-08-11T23:31:15.666Z,102088.59
2022-08-11T23:34:08.119Z,102078.28
2022-08-11T23:37:15.153Z,102078.78
2022-08-11T23:40:01.015Z,102075.75
2022-08-11T23:42:46.886Z,102078.13
2022-08-11T23:45:33.543Z,102067.81
2022-08-11T23:48:22.046Z,102066.69
2022-08-11T23:51:08.477Z,102063.44
2022-08-11T23:54:00.052Z,102070.16
2022-08-11T23:56:54.115Z,102076.38
2022-08-11T23:59:40.940Z,102074.75
